createdAt,value
2023-04-17T00:01:44.085Z,3.78
2023-04-17T00:04:30.891Z,4.50
2023-04-17T00:07:16.580Z,4.50
2023-04-17T00:10:01.995Z,4.35
2023-04-17T00:12:47.398Z,4.53
2023-04-17T00:15:32.749Z,5.20
2023-04-17T00:18:17.988Z,4.45
2023-04-17T00:21:03.690Z,4.80
2023-04-17T00:23:48.879Z,4.90
2023-04-17T00:26:34.728Z,5.10
2023-04-17T00:29:20.008Z,4.95
2023-04-17T00:32:05.650Z,5.00
2023-04-17T00:34:52.231Z,5.45
2023-04-17T00:37:39.031Z,5.88
2023-04-17T00:40:24.764Z,5.32
2023-04-17T00:43:10.217Z,5.82
2023-04-17T00:45:55.596Z,6.85
2023-04-17T00:48:41.714Z,5.55
2023-04-17T00:51:27.591Z,6.40
2023-04-17T00:54:12.833Z,6.05
2023-04-17T00:56:59.033Z,5.05
2023-04-17T00:59:44.615Z,5.47
2023-04-17T01:02:30.233Z,6.85
2023-04-17T01:05:15.850Z,6.00
2023-04-17T01:08:01.418Z,6.43
2023-04-17T01:10:46.463Z,7.13
2023-04-17T01:13:31.663Z,6.05
2023-04-17T01:16:17.520Z,5.80
2023-04-17T01:19:02.719Z,5.97
2023-04-17T01:21:47.864Z,6.25
2023-04-17T01:24:37.014Z,6.50
2023-04-17T01:27:22.724Z,6.20
2023-04-17T01:30:08.807Z,7.00
2023-04-17T01:32:55.917Z,7.03
2023-04-17T01:35:41.382Z,6.95
2023-04-17T01:38:26.782Z,7.97
2023-04-17T01:41:12.402Z,6.85
2023-04-17T01:43:57.980Z,6.30
2023-04-17T01:46:43.762Z,7.35
2023-04-17T01:49:28.874Z,9.32
2023-04-17T01:52:14.076Z,7.15
2023-04-17T01:54:59.364Z,8.60
2023-04-17T01:57:44.582Z,7.63
2023-04-17T02:00:30.428Z,6.10
2023-04-17T02:03:16.761Z,13.07
2023-04-17T02:06:02.373Z,13.35
2023-04-17T02:08:47.768Z,14.52
2023-04-17T02:11:33.098Z,11.05
2023-04-17T02:14:21.079Z,8.68
2023-04-17T02:17:06.056Z,8.43
2023-04-17T02:19:51.361Z,8.80
2023-04-17T02:22:36.766Z,10.80
2023-04-17T02:25:22.002Z,9.77
2023-04-17T02:28:07.474Z,7.85
2023-04-17T02:30:52.643Z,9.10
2023-04-17T02:33:38.507Z,8.07
2023-04-17T02:36:23.757Z,8.50
2023-04-17T02:39:09.350Z,7.45
2023-04-17T02:41:54.604Z,9.57
2023-04-17T02:44:40.049Z,8.77
2023-04-17T02:47:25.497Z,9.48
2023-04-17T02:50:11.392Z,9.25
2023-04-17T02:52:56.727Z,9.23
2023-04-17T02:55:41.810Z,9.27
2023-04-17T02:58:27.103Z,9.98
2023-04-17T03:01:12.741Z,10.02
2023-04-17T03:03:58.079Z,8.88
2023-04-17T03:06:43.724Z,9.40
2023-04-17T03:09:28.958Z,10.52
2023-04-17T03:12:15.611Z,10.25
2023-04-17T03:15:00.896Z,10.15
2023-04-17T03:17:46.189Z,11.35
2023-04-17T03:20:31.413Z,10.55
2023-04-17T03:23:16.750Z,9.27
2023-04-17T03:26:02.106Z,10.00
2023-04-17T03:28:47.513Z,9.70
2023-04-17T03:31:32.697Z,10.73
2023-04-17T03:34:19.090Z,9.90
2023-04-17T03:37:04.335Z,9.98
2023-04-17T03:39:49.704Z,9.93
2023-04-17T03:42:35.023Z,10.73
2023-04-17T03:45:20.529Z,10.15
2023-04-17T03:48:07.359Z,8.88
2023-04-17T03:50:52.595Z,9.25
2023-04-17T03:53:37.662Z,9.18
2023-04-17T03:56:23.223Z,8.90
2023-04-17T03:59:08.413Z,9.35
2023-04-17T04:01:54.320Z,10.18
2023-04-17T04:04:39.535Z,10.02
2023-04-17T04:07:25.107Z,10.15
2023-04-17T04:10:10.927Z,9.65
2023-04-17T04:12:56.297Z,9.30
2023-04-17T04:15:41.688Z,11.70
2023-04-17T04:18:27.007Z,10.25
2023-04-17T04:21:12.700Z,9.82
2023-04-17T04:23:57.709Z,9.85
2023-04-17T04:26:43.271Z,10.07
2023-04-17T04:29:28.412Z,10.60
2023-04-17T04:32:13.663Z,9.85
2023-04-17T04:35:01.601Z,11.20
2023-04-17T04:37:46.881Z,11.13
2023-04-17T04:40:38.332Z,10.90
2023-04-17T04:43:23.890Z,11.10
2023-04-17T04:46:10.383Z,10.70
2023-04-17T04:48:55.654Z,10.38
2023-04-17T04:51:41.192Z,10.45
2023-04-17T04:54:26.806Z,11.10
2023-04-17T04:57:12.009Z,11.65
2023-04-17T04:59:57.366Z,11.65
2023-04-17T05:02:42.806Z,12.55
2023-04-17T05:05:28.168Z,11.98
2023-04-17T05:08:14.012Z,12.20
2023-04-17T05:10:59.593Z,11.32
2023-04-17T05:13:44.703Z,10.65
2023-04-17T05:16:29.980Z,10.52
2023-04-17T05:19:15.725Z,10.88
2023-04-17T05:22:01.122Z,11.55
2023-04-17T05:24:46.296Z,10.48
2023-04-17T05:27:31.633Z,11.45
2023-04-17T05:30:16.982Z,10.13
2023-04-17T05:33:02.289Z,9.65
2023-04-17T05:35:47.548Z,9.68
2023-04-17T05:38:33.104Z,10.10
2023-04-17T05:41:18.294Z,9.40
2023-04-17T05:44:03.746Z,9.13
2023-04-17T05:46:49.244Z,9.25
2023-04-17T05:49:34.453Z,9.32
2023-04-17T05:52:19.461Z,9.90
2023-04-17T05:55:04.952Z,9.15
2023-04-17T05:57:50.828Z,9.98
2023-04-17T06:00:36.507Z,9.55
2023-04-17T06:03:22.076Z,10.25
2023-04-17T06:06:07.601Z,11.40
2023-04-17T06:08:54.655Z,11.23
2023-04-17T06:11:39.975Z,11.20
2023-04-17T06:14:25.382Z,11.57
2023-04-17T06:17:12.293Z,11.65
2023-04-17T06:19:57.576Z,10.52
2023-04-17T06:22:44.991Z,9.77
2023-04-17T06:25:30.235Z,10.38
2023-04-17T06:28:15.807Z,9.27
2023-04-17T06:31:01.246Z,9.45
2023-04-17T06:33:47.794Z,9.95
2023-04-17T06:36:33.376Z,9.30
2023-04-17T06:39:18.423Z,9.95
2023-04-17T06:42:03.984Z,9.45
2023-04-17T06:44:49.184Z,9.05
2023-04-17T06:47:34.402Z,7.90
2023-04-17T06:50:19.710Z,7.75
2023-04-17T06:53:05.787Z,8.27
2023-04-17T06:55:51.269Z,7.60
2023-04-17T06:58:42.489Z,7.32
2023-04-17T07:01:29.275Z,6.85
2023-04-17T07:04:14.664Z,6.88
2023-04-17T07:06:59.917Z,7.18
2023-04-17T07:09:45.848Z,7.20
2023-04-17T07:12:31.010Z,7.07
2023-04-17T07:15:16.614Z,7.50
2023-04-17T07:18:02.139Z,6.95
2023-04-17T07:20:48.507Z,5.90
2023-04-17T07:23:33.808Z,6.60
2023-04-17T07:26:19.244Z,6.30
2023-04-17T07:29:04.423Z,6.45
2023-04-17T07:31:49.814Z,6.32
2023-04-17T07:34:35.059Z,6.25
2023-04-17T07:37:20.472Z,6.32
2023-04-17T07:40:10.157Z,5.68
2023-04-17T07:42:56.991Z,5.65
2023-04-17T07:45:42.123Z,4.72
2023-04-17T07:48:27.394Z,5.43
2023-04-17T07:51:12.714Z,5.65
2023-04-17T07:53:58.214Z,5.07
2023-04-17T07:56:46.641Z,5.70
2023-04-17T07:59:31.902Z,6.15
2023-04-17T08:02:17.359Z,5.15
2023-04-17T08:05:03.690Z,7.85
2023-04-17T08:07:48.894Z,6.40
2023-04-17T08:10:34.342Z,6.03
2023-04-17T08:13:19.666Z,6.07
2023-04-17T08:16:05.433Z,5.97
2023-04-17T08:18:50.450Z,6.07
2023-04-17T08:21:36.061Z,4.40
2023-04-17T08:24:21.521Z,4.10
2023-04-17T08:27:07.956Z,3.88
2023-04-17T08:29:56.571Z,3.88
2023-04-17T08:32:45.153Z,3.78
2023-04-17T08:35:30.447Z,3.20
2023-04-17T08:38:15.678Z,3.33
2023-04-17T08:41:06.273Z,3.83
2023-04-17T08:43:51.999Z,3.13
2023-04-17T08:46:38.921Z,2.65
2023-04-17T08:49:29.484Z,2.55
2023-04-17T08:52:14.779Z,2.80
2023-04-17T08:55:01.748Z,2.85
2023-04-17T08:58:14.666Z,3.35
2023-04-17T09:01:17.537Z,2.88
2023-04-17T09:04:03.078Z,2.97
2023-04-17T09:06:54.270Z,3.33
2023-04-17T09:09:55.060Z,3.22
2023-04-17T09:12:42.048Z,3.08
2023-04-17T09:15:27.438Z,2.90
2023-04-17T09:18:27.343Z,2.63
2023-04-17T09:21:14.526Z,2.80
2023-04-17T09:23:59.753Z,2.90
2023-04-17T09:26:45.037Z,2.63
2023-04-17T09:29:30.613Z,3.00
2023-04-17T09:32:16.420Z,2.72
2023-04-17T09:35:06.124Z,2.40
2023-04-17T09:37:52.890Z,2.40
2023-04-17T09:40:42.194Z,2.90
2023-04-17T09:43:43.334Z,2.85
2023-04-17T09:46:33.327Z,3.05
2023-04-17T09:49:39.518Z,3.83
2023-04-17T09:52:24.932Z,2.55
2023-04-17T09:55:11.665Z,3.65
2023-04-17T09:57:58.455Z,2.95
2023-04-17T10:00:44.309Z,2.30
2023-04-17T10:03:29.733Z,3.10
2023-04-17T10:06:15.729Z,3.03
2023-04-17T10:09:01.573Z,2.75
2023-04-17T10:11:47.974Z,3.65
2023-04-17T10:14:40.134Z,3.35
2023-04-17T10:17:31.933Z,3.22
2023-04-17T10:20:20.233Z,2.90
2023-04-17T10:23:27.112Z,4.18
2023-04-17T10:26:28.126Z,4.85
2023-04-17T10:29:13.755Z,3.15
2023-04-17T10:32:11.386Z,3.88
2023-04-17T10:35:00.844Z,3.40
2023-04-17T10:37:51.978Z,3.05
2023-04-17T10:40:38.453Z,2.80
2023-04-17T10:43:23.705Z,2.45
2023-04-17T10:46:12.412Z,2.50
2023-04-17T10:48:58.105Z,2.13
2023-04-17T10:51:43.249Z,2.80
2023-04-17T10:54:32.827Z,3.38
2023-04-17T10:57:54.181Z,2.78
2023-04-17T11:00:50.870Z,8.27
2023-04-17T11:03:37.600Z,5.00
2023-04-17T11:06:27.313Z,2.08
2023-04-17T11:09:13.064Z,2.00
2023-04-17T11:12:01.593Z,2.20
2023-04-17T11:14:47.344Z,1.50
2023-04-17T11:17:32.778Z,2.22
2023-04-17T11:20:23.493Z,2.10
2023-04-17T11:23:08.841Z,1.80
2023-04-17T11:25:53.880Z,1.80
2023-04-17T11:28:39.360Z,3.95
2023-04-17T11:31:24.986Z,2.05
2023-04-17T11:34:11.242Z,1.77
2023-04-17T11:36:58.346Z,1.67
2023-04-17T11:39:43.327Z,1.40
2023-04-17T11:42:28.777Z,1.55
2023-04-17T11:45:13.817Z,1.70
2023-04-17T11:47:59.210Z,2.10
2023-04-17T11:50:44.812Z,1.58
2023-04-17T11:53:30.722Z,1.77
2023-04-17T11:56:16.117Z,1.77
2023-04-17T11:59:03.763Z,1.63
2023-04-17T12:01:53.156Z,2.13
2023-04-17T12:04:39.944Z,2.17
2023-04-17T12:07:25.806Z,2.10
2023-04-17T12:10:11.265Z,2.28
2023-04-17T12:12:56.668Z,1.48
2023-04-17T12:15:41.913Z,2.08
2023-04-17T12:18:27.133Z,1.60
2023-04-17T12:21:13.345Z,2.25
2023-04-17T12:23:58.266Z,2.47
2023-04-17T12:26:47.984Z,2.65
2023-04-17T12:29:43.700Z,1.92
2023-04-17T12:32:30.892Z,2.42
2023-04-17T12:35:16.162Z,1.67
2023-04-17T12:38:01.519Z,1.38
2023-04-17T12:40:46.717Z,1.60
2023-04-17T12:43:33.523Z,1.60
2023-04-17T12:46:18.792Z,2.78
2023-04-17T12:49:03.966Z,2.55
2023-04-17T12:51:49.434Z,2.20
2023-04-17T12:54:34.599Z,2.22
2023-04-17T12:57:20.127Z,5.40
2023-04-17T13:00:09.549Z,1.83
2023-04-17T13:02:55.104Z,2.08
2023-04-17T13:05:40.325Z,2.50
2023-04-17T13:08:25.693Z,2.80
2023-04-17T13:11:11.189Z,2.20
2023-04-17T13:13:56.307Z,2.75
2023-04-17T13:16:41.771Z,2.17
2023-04-17T13:19:27.405Z,1.90
2023-04-17T13:22:12.643Z,2.60
2023-04-17T13:24:59.463Z,6.00
2023-04-17T13:27:44.749Z,5.85
2023-04-17T13:30:30.114Z,5.50
2023-04-17T13:33:15.354Z,2.92
2023-04-17T13:36:00.679Z,3.75
2023-04-17T13:38:45.895Z,3.55
2023-04-17T13:41:31.460Z,2.65
2023-04-17T13:44:17.593Z,3.38
2023-04-17T13:47:03.735Z,4.93
2023-04-17T13:49:49.334Z,3.30
2023-04-17T13:52:34.374Z,3.80
2023-04-17T13:55:19.845Z,2.42
2023-04-17T13:58:04.739Z,3.05
2023-04-17T14:00:50.141Z,4.22
2023-04-17T14:03:36.881Z,3.55
2023-04-17T14:06:24.307Z,3.33
2023-04-17T14:09:09.727Z,4.43
2023-04-17T14:11:54.809Z,3.85
2023-04-17T14:14:39.774Z,4.35
2023-04-17T14:17:25.231Z,5.05
2023-04-17T14:20:11.462Z,2.85
2023-04-17T14:22:56.922Z,3.08
2023-04-17T14:25:42.862Z,2.03
2023-04-17T14:28:28.296Z,1.80
2023-04-17T14:31:13.446Z,2.35
2023-04-17T14:33:58.838Z,2.15
2023-04-17T14:36:44.239Z,2.45
2023-04-17T14:39:31.360Z,1.85
2023-04-17T14:42:17.306Z,1.98
2023-04-17T14:45:02.400Z,2.15
2023-04-17T14:47:47.727Z,2.35
2023-04-17T14:50:33.808Z,2.80
2023-04-17T14:53:21.409Z,3.65
2023-04-17T14:56:08.364Z,5.57
2023-04-17T14:58:53.615Z,3.20
2023-04-17T15:01:38.758Z,2.72
2023-04-17T15:04:24.270Z,2.72
2023-04-17T15:07:09.568Z,3.20
2023-04-17T15:09:56.338Z,2.83
2023-04-17T15:12:41.780Z,3.05
2023-04-17T15:15:28.550Z,3.45
2023-04-17T15:18:13.729Z,3.75
2023-04-17T15:20:59.059Z,4.63
2023-04-17T15:23:43.874Z,6.25
2023-04-17T15:26:29.252Z,6.20
2023-04-17T15:29:14.762Z,7.72
2023-04-17T15:32:01.734Z,5.05
2023-04-17T15:34:47.525Z,5.60
2023-04-17T15:37:32.750Z,4.80
2023-04-17T15:40:17.992Z,4.97
2023-04-17T15:43:03.262Z,8.52
2023-04-17T15:45:49.271Z,7.60
2023-04-17T15:48:34.798Z,8.60
2023-04-17T15:51:21.237Z,6.70
2023-04-17T15:54:06.279Z,3.60
2023-04-17T15:56:51.427Z,5.20
2023-04-17T15:59:36.428Z,4.60
2023-04-17T16:02:21.835Z,5.18
2023-04-17T16:05:07.490Z,4.75
2023-04-17T16:07:52.554Z,4.70
2023-04-17T16:10:37.489Z,6.90
2023-04-17T16:13:22.757Z,8.52
2023-04-17T16:16:08.283Z,6.78
2023-04-17T16:18:53.482Z,27.70
2023-04-17T16:21:38.576Z,14.82
2023-04-17T16:24:25.020Z,62.47
2023-04-17T16:27:10.365Z,17.45
2023-04-17T16:29:55.712Z,14.70
2023-04-17T16:32:40.772Z,13.90
2023-04-17T16:35:26.797Z,10.82
2023-04-17T16:38:11.884Z,17.60
2023-04-17T16:40:58.933Z,16.33
2023-04-17T16:43:44.001Z,19.88
2023-04-17T16:46:40.201Z,32.08
2023-04-17T16:49:34.693Z,25.38
2023-04-17T16:52:19.952Z,19.35
2023-04-17T16:55:06.323Z,12.23
2023-04-17T16:57:51.675Z,13.98
2023-04-17T17:00:36.962Z,12.27
2023-04-17T17:03:21.938Z,16.15
2023-04-17T17:06:07.225Z,15.82
2023-04-17T17:08:53.878Z,13.93
2023-04-17T17:11:41.022Z,9.00
2023-04-17T17:14:26.163Z,10.80
2023-04-17T17:17:11.484Z,18.42
2023-04-17T17:19:56.751Z,23.98
2023-04-17T17:22:41.910Z,25.55
2023-04-17T17:25:27.327Z,10.40
2023-04-17T17:28:12.324Z,11.77
2023-04-17T17:31:01.488Z,17.60
2023-04-17T17:33:50.179Z,17.80
2023-04-17T17:36:35.658Z,13.30
2023-04-17T17:39:22.176Z,14.32
2023-04-17T17:42:08.714Z,18.33
2023-04-17T17:44:54.116Z,17.35
2023-04-17T17:47:40.135Z,12.57
2023-04-17T17:50:25.726Z,14.38
2023-04-17T17:53:11.302Z,12.10
2023-04-17T17:55:57.114Z,16.95
2023-04-17T17:58:42.249Z,14.23
2023-04-17T18:01:27.258Z,16.30
2023-04-17T18:04:13.282Z,14.27
2023-04-17T18:06:59.146Z,11.45
2023-04-17T18:09:44.482Z,12.68
2023-04-17T18:12:29.625Z,10.90
2023-04-17T18:15:14.861Z,9.77
2023-04-17T18:18:00.517Z,18.27
2023-04-17T18:20:45.697Z,15.10
2023-04-17T18:23:31.026Z,13.45
2023-04-17T18:26:16.241Z,34.13
2023-04-17T18:29:01.148Z,113.03
2023-04-17T18:31:46.132Z,41.03
2023-04-17T18:34:31.337Z,11.98
2023-04-17T18:37:18.156Z,24.08
2023-04-17T18:40:03.788Z,8.27
2023-04-17T18:42:49.064Z,10.25
2023-04-17T18:45:34.220Z,31.02
2023-04-17T18:48:19.324Z,11.05
2023-04-17T18:51:11.851Z,16.27
2023-04-17T18:53:57.270Z,8.18
2023-04-17T18:56:43.191Z,7.15
2023-04-17T18:59:28.708Z,4.47
2023-04-17T19:02:14.425Z,4.47
2023-04-17T19:04:59.449Z,4.65
2023-04-17T19:07:44.703Z,5.40
2023-04-17T19:10:30.134Z,6.15
2023-04-17T19:13:15.480Z,8.45
2023-04-17T19:16:01.048Z,6.57
2023-04-17T19:18:46.601Z,7.53
2023-04-17T19:21:32.793Z,6.15
2023-04-17T19:24:18.059Z,6.05
2023-04-17T19:27:03.324Z,5.85
2023-04-17T19:29:48.473Z,5.47
2023-04-17T19:32:34.029Z,4.13
2023-04-17T19:35:19.160Z,4.75
2023-04-17T19:38:04.461Z,5.03
2023-04-17T19:41:09.790Z,4.53
2023-04-17T19:43:54.942Z,5.15
2023-04-17T19:46:40.373Z,8.82
2023-04-17T19:49:25.773Z,7.50
2023-04-17T19:52:12.128Z,7.35
2023-04-17T19:54:57.686Z,12.15
2023-04-17T19:57:44.794Z,6.38
2023-04-17T20:00:29.883Z,7.32
2023-04-17T20:03:15.449Z,8.70
2023-04-17T20:06:01.085Z,10.43
2023-04-17T20:08:46.458Z,6.97
2023-04-17T20:11:32.049Z,5.20
2023-04-17T20:14:19.557Z,5.72
2023-04-17T20:17:04.773Z,7.72
2023-04-17T20:19:49.930Z,10.90
2023-04-17T20:22:35.898Z,9.05
2023-04-17T20:25:21.194Z,6.50
2023-04-17T20:28:06.743Z,10.40
2023-04-17T20:30:52.011Z,10.20
2023-04-17T20:33:37.402Z,6.65
2023-04-17T20:36:22.673Z,8.65
2023-04-17T20:39:10.850Z,8.30
2023-04-17T20:41:56.654Z,6.18
2023-04-17T20:44:41.890Z,5.22
2023-04-17T20:47:27.157Z,6.63
2023-04-17T20:50:13.285Z,7.60
2023-04-17T20:52:58.198Z,6.07
2023-04-17T20:55:43.852Z,6.53
2023-04-17T20:58:28.953Z,7.53
2023-04-17T21:01:15.732Z,8.88
2023-04-17T21:04:01.046Z,8.95
2023-04-17T21:06:46.497Z,8.88
2023-04-17T21:09:31.755Z,7.15
2023-04-17T21:12:17.237Z,7.53
2023-04-17T21:15:02.525Z,6.32
2023-04-17T21:17:48.081Z,4.68
2023-04-17T21:20:33.293Z,5.68
2023-04-17T21:23:18.690Z,6.57
2023-04-17T21:26:04.908Z,6.97
2023-04-17T21:28:49.877Z,6.80
2023-04-17T21:31:35.347Z,5.97
2023-04-17T21:34:20.821Z,5.95
2023-04-17T21:37:05.938Z,5.28
2023-04-17T21:39:51.323Z,5.30
2023-04-17T21:42:36.685Z,4.80
2023-04-17T21:45:22.057Z,4.75
2023-04-17T21:48:07.284Z,4.18
2023-04-17T21:50:55.465Z,4.47
2023-04-17T21:53:40.629Z,4.80
2023-04-17T21:56:25.913Z,4.60
2023-04-17T21:59:11.343Z,5.38
2023-04-17T22:01:56.773Z,4.80
2023-04-17T22:04:42.025Z,4.00
2023-04-17T22:07:27.422Z,3.75
2023-04-17T22:10:12.649Z,3.42
2023-04-17T22:12:58.204Z,3.08
2023-04-17T22:15:44.358Z,3.33
2023-04-17T22:18:29.721Z,3.55
2023-04-17T22:21:15.158Z,3.45
2023-04-17T22:24:00.446Z,2.97
2023-04-17T22:26:45.763Z,3.75
2023-04-17T22:29:31.314Z,4.20
2023-04-17T22:32:16.368Z,3.40
2023-04-17T22:35:02.553Z,3.67
2023-04-17T22:37:47.526Z,3.35
2023-04-17T22:40:33.012Z,3.55
2023-04-17T22:43:18.186Z,2.90
2023-04-17T22:46:03.614Z,3.13
2023-04-17T22:48:49.678Z,2.78
2023-04-17T22:51:34.842Z,2.78
2023-04-17T22:54:23.186Z,2.67
2023-04-17T22:57:10.504Z,2.70
2023-04-17T22:59:55.413Z,3.00
2023-04-17T23:02:40.929Z,3.08
2023-04-17T23:05:26.527Z,2.78
2023-04-17T23:08:12.112Z,2.63
2023-04-17T23:10:59.965Z,2.60
2023-04-17T23:13:45.508Z,3.13
2023-04-17T23:16:31.084Z,2.70
2023-04-17T23:19:16.365Z,2.92
2023-04-17T23:22:02.148Z,3.22
2023-04-17T23:24:47.526Z,2.67
2023-04-17T23:27:32.901Z,2.78
2023-04-17T23:30:18.471Z,2.42
2023-04-17T23:33:03.537Z,2.50
2023-04-17T23:35:48.811Z,2.50
2023-04-17T23:38:34.065Z,2.40
2023-04-17T23:41:19.541Z,2.30
2023-04-17T23:44:05.145Z,2.70
2023-04-17T23:46:50.238Z,2.20
2023-04-17T23:49:36.033Z,3.22
2023-04-17T23:52:21.348Z,2.58
2023-04-17T23:55:07.927Z,2.67
2023-04-17T23:57:57.229Z,2.60
